Time;durP1;ratioP1;P1;durP2;ratioP2;P2;SDS_P1;SDS_P2;PMS_P1;PMS_P2;Temp;Humidity;BMP_temperature;BMP_pressure;BME280_temperature;BME280_humidity;BME280_pressure;Samples;Min_cycle;Max_cycle;Signal;HPM_P1;HPM_P2
2022/01/23 00:00:45;;;;;;;8.18;7.78;;;;;;;-2.75;91.51;101016.47;5011554;28;20108;-65
2022/01/23 00:03:17;;;;;;;8.23;7.82;;;;;;;-2.72;91.11;101023.25;5009540;28;20072;-64
2022/01/23 00:05:44;;;;;;;8.00;7.60;;;;;;;-2.71;91.20;101030.16;5012330;28;20820;-64
2022/01/23 00:08:12;;;;;;;8.23;7.82;;;;;;;-2.73;91.20;101035.41;5011732;28;20416;-63
2022/01/23 00:10:38;;;;;;;8.20;7.80;;;;;;;-2.70;91.54;101037.03;5012194;28;20415;-63
2022/01/23 00:13:11;;;;;;;8.10;7.70;;;;;;;-2.79;91.64;101036.56;5013116;28;20053;-64
2022/01/23 00:18:21;;;;;;;7.82;7.43;;;;;;;-2.75;91.99;101042.44;5013126;28;20523;-64
2022/01/23 00:20:48;;;;;;;8.13;7.72;;;;;;;-2.79;92.40;101033.13;5011926;28;20034;-64
2022/01/23 00:30:19;;;;;;;8.23;7.82;;;;;;;-2.91;92.47;101025.94;5012508;28;20021;-64
2022/01/23 00:31:29;;;;;;;8.07;7.68;;;;;;;-2.99;92.77;101025.50;5010218;28;19924;-63
2022/01/23 00:33:55;;;;;;;8.52;8.07;;;;;;;-2.91;92.37;101036.34;5012975;28;20034;-63
2022/01/23 00:36:25;;;;;;;8.35;7.95;;;;;;;-2.92;93.06;101039.84;5012503;28;20032;-63
2022/01/23 00:38:50;;;;;;;8.80;8.30;;;;;;;-2.96;92.71;101043.50;5013749;28;20045;-64
2022/01/23 00:41:17;;;;;;;8.82;8.35;;;;;;;-3.00;92.74;101040.22;4996338;28;20465;-64
2022/01/23 00:43:44;;;;;;;8.13;7.72;;;;;;;-3.02;93.06;101043.81;5011984;28;20077;-63
2022/01/23 00:51:21;;;;;;;8.85;8.35;;;;;;;-3.01;93.23;101043.75;5008669;28;20040;-64
2022/01/23 00:53:47;;;;;;;8.20;7.80;;;;;;;-3.12;93.46;101023.50;5013349;28;20030;-63
2022/01/23 00:56:12;;;;;;;8.40;8.00;;;;;;;-3.03;93.15;101032.59;5012805;28;20125;-64
2022/01/23 00:58:38;;;;;;;8.18;7.78;;;;;;;-3.04;93.14;101032.66;5011685;28;20048;-64
2022/01/23 01:01:03;;;;;;;9.20;8.68;;;;;;;-3.09;92.26;101022.50;5016269;28;20038;-63
2022/01/23 01:03:29;;;;;;;8.48;8.07;;;;;;;-2.97;92.29;101031.44;5018103;28;20084;-64
2022/01/23 01:05:54;;;;;;;7.93;7.53;;;;;;;-3.02;91.80;101038.59;5019589;28;20109;-64
2022/01/23 01:08:20;;;;;;;8.60;8.10;;;;;;;-2.97;91.57;101032.28;5017714;28;20026;-64
2022/01/23 01:10:58;;;;;;;8.00;7.60;;;;;;;-2.95;91.25;101027.00;5017881;28;20049;-63
2022/01/23 01:13:29;;;;;;;8.27;7.88;;;;;;;-2.97;91.30;101029.69;5016217;28;20385;-64
2022/01/23 01:16:23;;;;;;;8.93;8.43;;;;;;;-2.94;91.48;101024.34;5016207;28;20469;-64
2022/01/23 01:32:40;;;;;;;7.50;7.10;;;;;;;-2.93;90.28;101025.19;5016402;28;20040;-64
2022/01/23 01:35:18;;;;;;;8.05;7.65;;;;;;;-3.01;90.19;101019.53;5017190;28;20501;-63
2022/01/23 01:37:43;;;;;;;9.05;8.55;;;;;;;-3.09;90.62;101019.91;5017601;28;20550;-64
2022/01/23 01:40:09;;;;;;;8.30;7.90;;;;;;;-3.28;90.93;100980.22;5017938;28;20018;-64
2022/01/23 01:42:37;;;;;;;8.38;7.97;;;;;;;-3.10;91.81;101019.06;5019084;28;20481;-63
2022/01/23 01:45:04;;;;;;;9.38;8.77;;;;;;;-3.08;91.76;101013.81;4999914;28;20053;-64
2022/01/23 01:47:29;;;;;;;8.75;8.27;;;;;;;-3.11;91.85;101019.16;5018318;28;20370;-63
2022/01/23 01:49:55;;;;;;;8.05;7.65;;;;;;;-3.16;92.61;101001.22;5017721;28;20033;-64
2022/01/23 01:52:20;;;;;;;8.30;7.90;;;;;;;-3.12;92.52;101020.06;5017823;28;20496;-63
2022/01/23 01:54:48;;;;;;;8.00;7.60;;;;;;;-3.25;93.44;101016.38;5017975;28;20536;-64
2022/01/23 01:57:15;;;;;;;8.23;7.82;;;;;;;-3.15;93.73;101009.84;5018665;28;20485;-64
2022/01/23 02:10:38;;;;;;;8.23;7.78;;;;;;;-3.39;100.00;100997.13;5016384;28;20460;-64
2022/01/23 02:13:10;;;;;;;8.70;8.20;;;;;;;-3.36;100.00;101006.53;4998167;28;21793;-64
2022/01/23 02:22:28;;;;;;;8.82;8.32;;;;;;;-3.34;100.00;101005.53;5015089;28;20033;-64
2022/01/23 02:56:36;;;;;;;7.90;7.50;;;;;;;-3.29;100.00;100987.16;5013559;28;20052;-63
2022/01/23 02:59:12;;;;;;;8.60;8.15;;;;;;;-3.31;100.00;100991.56;5011777;28;20084;-63
2022/01/23 03:01:48;;;;;;;8.10;7.70;;;;;;;-3.26;100.00;100986.16;5012866;28;20038;-63
2022/01/23 03:04:20;;;;;;;8.25;7.85;;;;;;;-3.31;100.00;100985.53;5014665;28;20030;-64
2022/01/23 03:25:38;;;;;;;8.40;8.00;;;;;;;-3.42;100.00;100980.91;4981910;28;20523;-64
2022/01/23 03:33:25;;;;;;;9.00;8.50;;;;;;;-3.37;100.00;100990.13;5015351;28;20041;-63
2022/01/23 03:35:51;;;;;;;8.57;8.18;;;;;;;-3.37;100.00;100994.50;5013295;28;20030;-64
2022/01/23 03:38:16;;;;;;;8.70;8.20;;;;;;;-3.37;100.00;100994.50;5013829;28;20079;-64
2022/01/23 03:40:42;;;;;;;8.80;8.30;;;;;;;-3.42;100.00;100993.88;5012684;28;20065;-64
2022/01/23 03:43:10;;;;;;;8.48;8.07;;;;;;;-3.41;100.00;100998.13;4992495;28;20092;-64
2022/01/23 03:50:48;;;;;;;8.50;8.10;;;;;;;-3.38;100.00;101000.56;4988355;28;20180;-64
2022/01/23 03:53:15;;;;;;;8.90;8.40;;;;;;;-3.42;100.00;101005.06;5014326;28;20041;-63
2022/01/23 03:55:41;;;;;;;8.85;8.35;;;;;;;-3.37;100.00;100999.69;5013126;28;20413;-64
2022/01/23 03:58:14;;;;;;;9.60;9.00;;;;;;;-3.30;100.00;101008.84;5011918;28;20026;-64
2022/01/23 04:00:39;;;;;;;8.93;8.43;;;;;;;-3.33;100.00;101009.81;4996195;28;20040;-63
2022/01/23 04:03:05;;;;;;;9.20;8.70;;;;;;;-3.32;100.00;101010.66;5012617;28;20029;-64
2022/01/23 04:05:30;;;;;;;8.95;8.45;;;;;;;-3.35;100.00;101010.81;5014301;28;20164;-64
2022/01/23 04:07:57;;;;;;;9.35;8.82;;;;;;;-3.32;100.00;101010.66;5023974;28;20038;-64
2022/01/23 04:10:24;;;;;;;8.88;8.38;;;;;;;-3.31;100.00;101012.31;5011632;28;20026;-64
2022/01/23 04:13:07;;;;;;;9.30;8.75;;;;;;;-3.27;100.00;101018.22;5010789;28;20026;-64
2022/01/23 04:34:19;;;;;;;8.25;7.85;;;;;;;-3.31;100.00;101009.72;5011802;28;19920;-63
2022/01/23 04:59:34;;;;;;;9.20;8.70;;;;;;;-3.34;100.00;101023.69;5010825;28;20862;-63
2022/01/23 05:01:40;;;;;;;8.85;8.35;;;;;;;-3.34;100.00;101021.09;5010880;28;20065;-64
2022/01/23 05:06:38;;;;;;;9.40;8.90;;;;;;;-3.40;100.00;101023.16;5009864;28;20030;-64
2022/01/23 05:09:06;;;;;;;8.50;8.10;;;;;;;-3.42;100.00;101022.41;5008897;28;20034;-64
2022/01/23 05:11:31;;;;;;;9.10;8.60;;;;;;;-3.47;100.00;101022.59;4993676;28;20108;-64
2022/01/23 05:14:00;;;;;;;8.55;8.15;;;;;;;-3.47;100.00;101021.75;5009025;28;20462;-64
2022/01/23 05:16:25;;;;;;;8.20;7.80;;;;;;;-3.47;100.00;101024.34;5011200;28;20034;-64
2022/01/23 05:18:53;;;;;;;8.50;8.10;;;;;;;-3.49;100.00;101023.59;5012521;28;20084;-64
2022/01/23 05:24:07;;;;;;;8.80;8.30;;;;;;;-3.44;100.00;101026.81;4979247;28;20080;-64
2022/01/23 05:26:41;;;;;;;8.60;8.20;;;;;;;-3.41;100.00;101024.91;5011247;28;20129;-64
2022/01/23 05:29:07;;;;;;;8.68;8.27;;;;;;;-3.45;100.00;101019.94;5009902;28;20014;-64
2022/01/23 05:31:35;;;;;;;8.52;8.13;;;;;;;-3.44;100.00;101019.03;5011510;28;20030;-64
2022/01/23 05:34:00;;;;;;;9.30;8.80;;;;;;;-3.48;100.00;101026.09;5011717;28;20030;-64
2022/01/23 05:36:26;;;;;;;8.65;8.25;;;;;;;-3.44;100.00;101024.22;5011180;28;20382;-64
2022/01/23 05:38:51;;;;;;;9.70;9.10;;;;;;;-3.45;100.00;101017.34;5005883;28;20394;-65
2022/01/23 05:41:17;;;;;;;9.10;8.60;;;;;;;-3.43;100.00;101018.97;5009001;28;20025;-64
2022/01/23 05:43:42;;;;;;;8.57;8.18;;;;;;;-3.46;100.00;101026.03;5009876;28;20558;-64
2022/01/23 05:46:11;;;;;;;8.88;8.38;;;;;;;-3.45;100.00;101017.34;5012920;28;20037;-65
2022/01/23 05:48:36;;;;;;;10.00;9.40;;;;;;;-3.43;100.00;101028.50;4998037;28;20061;-64
2022/01/23 05:51:02;;;;;;;8.45;8.05;;;;;;;-3.35;100.00;101034.16;5014820;28;20054;-63
2022/01/23 05:53:27;;;;;;;8.60;8.20;;;;;;;-3.39;100.00;101040.38;5014228;28;20033;-64
2022/01/23 05:55:53;;;;;;;8.77;8.30;;;;;;;-3.35;100.00;101041.94;5014414;28;20117;-64
2022/01/23 05:58:18;;;;;;;8.95;8.45;;;;;;;-3.34;100.00;101038.44;5014037;28;20118;-63
2022/01/23 06:00:44;;;;;;;8.75;8.25;;;;;;;-3.34;100.00;101044.44;5012873;28;20026;-64
2022/01/23 06:03:09;;;;;;;9.00;8.50;;;;;;;-3.38;100.00;101044.66;5014562;28;20105;-64
2022/01/23 06:05:37;;;;;;;8.77;8.27;;;;;;;-3.26;100.00;101051.88;4997222;28;20029;-64
2022/01/23 06:08:03;;;;;;;9.00;8.50;;;;;;;-3.29;100.00;101046.84;5014127;28;20591;-64
2022/01/23 06:10:36;;;;;;;8.70;8.20;;;;;;;-3.30;100.00;101052.09;5014302;28;20033;-64
2022/01/23 06:13:02;;;;;;;8.55;8.15;;;;;;;-3.25;100.00;101042.31;5010691;28;20078;-64
2022/01/23 06:15:28;;;;;;;8.70;8.23;;;;;;;-3.39;100.00;101035.19;5013901;28;20076;-65
2022/01/23 06:17:53;;;;;;;10.95;10.15;;;;;;;-3.26;100.00;101058.81;4989876;28;20065;-63
2022/01/23 06:20:21;;;;;;;8.40;8.00;;;;;;;-3.28;100.00;101056.28;5009258;28;20022;-64
2022/01/23 06:22:47;;;;;;;8.80;8.30;;;;;;;-3.42;100.00;101051.75;5011800;28;20022;-64
2022/01/23 06:25:15;;;;;;;8.80;8.30;;;;;;;-3.29;100.00;101057.22;5015722;28;20028;-64
2022/01/23 06:27:41;;;;;;;9.25;8.73;;;;;;;-3.22;100.00;101058.59;5013383;28;20129;-65
2022/01/23 06:30:08;;;;;;;9.80;9.20;;;;;;;-3.33;100.00;101048.72;5012140;28;20485;-64
2022/01/23 06:32:34;;;;;;;9.70;9.10;;;;;;;-3.17;100.00;101058.38;5006801;28;20033;-64
2022/01/23 06:34:59;;;;;;;9.25;8.75;;;;;;;-3.21;100.00;101059.44;5008808;28;20412;-64
2022/01/23 06:37:25;;;;;;;10.82;10.02;;;;;;;-3.14;100.00;101066.84;5013751;28;20079;-64
2022/01/23 06:39:51;;;;;;;9.18;8.63;;;;;;;-3.29;100.00;101054.63;5002163;28;20436;-63
2022/01/23 06:42:16;;;;;;;8.93;8.43;;;;;;;-3.26;100.00;101064.84;5002143;28;20033;-64
2022/01/23 06:44:41;;;;;;;9.68;9.07;;;;;;;-3.22;100.00;101061.19;5004716;28;20030;-63
2022/01/23 06:47:07;;;;;;;9.70;9.10;;;;;;;-3.17;100.00;101066.97;5009104;28;20473;-64
2022/01/23 06:49:32;;;;;;;8.73;8.23;;;;;;;-3.16;100.00;101063.50;5007667;28;20037;-63
2022/01/23 06:51:58;;;;;;;8.90;8.40;;;;;;;-3.16;100.00;101065.22;5014652;28;20113;-64
2022/01/23 06:54:23;;;;;;;8.88;8.48;;;;;;;-3.18;100.00;101070.50;5014550;28;20034;-66
2022/01/23 06:56:55;;;;;;;8.85;8.35;;;;;;;-2.96;100.00;101069.47;5011718;28;20485;-65
2022/01/23 06:59:21;;;;;;;9.13;8.63;;;;;;;-3.02;100.00;101070.59;5004017;28;20092;-64
2022/01/23 07:01:46;;;;;;;9.00;8.50;;;;;;;-3.06;100.00;101062.13;5001956;28;20033;-64
2022/01/23 07:04:12;;;;;;;9.82;9.23;;;;;;;-2.94;100.00;101073.66;5004585;28;20596;-64
2022/01/23 07:06:38;;;;;;;9.13;8.63;;;;;;;-2.72;100.00;101076.03;5002958;28;20033;-63
2022/01/23 07:09:03;;;;;;;8.82;8.32;;;;;;;-2.56;100.00;101082.16;5015914;28;20033;-64
2022/01/23 07:11:29;;;;;;;9.32;8.82;;;;;;;-2.58;100.00;101078.78;5009156;28;20025;-64
2022/01/23 07:13:54;;;;;;;8.73;8.23;;;;;;;-2.62;100.00;101085.06;5008528;28;20033;-64
2022/01/23 07:16:20;;;;;;;9.30;8.70;;;;;;;-2.53;100.00;101096.75;5012128;28;20022;-64
2022/01/23 07:18:45;;;;;;;8.90;8.40;;;;;;;-2.61;100.00;101099.72;5010327;28;20034;-63
2022/01/23 07:21:11;;;;;;;9.18;8.68;;;;;;;-2.53;100.00;101091.53;5006256;28;20026;-64
2022/01/23 07:23:36;;;;;;;8.32;7.93;;;;;;;-2.53;100.00;101094.13;5015117;28;20022;-64
2022/01/23 07:26:02;;;;;;;8.60;8.10;;;;;;;-2.29;100.00;101097.25;5011982;28;20041;-63
2022/01/23 07:28:37;;;;;;;8.80;8.30;;;;;;;-2.23;100.00;101095.19;5013251;28;20121;-64
2022/01/23 07:31:05;;;;;;;8.70;8.20;;;;;;;-2.21;100.00;101097.69;5013953;28;20148;-64
2022/01/23 07:33:33;;;;;;;8.93;8.43;;;;;;;-2.11;100.00;101105.88;4996318;28;20453;-64
2022/01/23 07:36:02;;;;;;;9.30;8.73;;;;;;;-1.97;100.00;101106.84;4995947;28;20208;-65
2022/01/23 07:38:27;;;;;;;7.95;7.57;;;;;;;-2.12;100.00;101101.59;5011707;28;20045;-63
2022/01/23 07:40:56;;;;;;;8.20;7.80;;;;;;;-2.03;100.00;101096.75;5014892;28;20486;-64
2022/01/23 07:43:21;;;;;;;8.13;7.72;;;;;;;-1.84;100.00;101108.75;4998729;28;20022;-64
2022/01/23 07:45:47;;;;;;;8.40;7.93;;;;;;;-1.69;100.00;101114.03;5014733;28;20084;-63
2022/01/23 07:48:15;;;;;;;8.27;7.88;;;;;;;-1.74;100.00;101117.78;5012613;28;20026;-64
2022/01/23 07:50:40;;;;;;;9.27;8.75;;;;;;;-1.67;100.00;101090.53;5006658;28;20053;-63
2022/01/23 07:53:06;;;;;;;8.40;7.97;;;;;;;-1.50;100.00;101121.66;5008563;28;20446;-63
2022/01/23 07:55:32;;;;;;;9.00;8.50;;;;;;;-1.37;100.00;101108.81;5009161;28;20025;-64
2022/01/23 07:58:04;;;;;;;9.95;9.30;;;;;;;-1.71;100.00;101089.84;5005348;28;20575;-64
2022/01/23 08:00:30;;;;;;;8.55;8.15;;;;;;;-1.38;100.00;101106.31;5006776;28;20060;-65
2022/01/23 08:02:56;;;;;;;8.63;8.13;;;;;;;-0.82;97.64;101105.72;5012120;28;20065;-64
2022/01/23 08:05:21;;;;;;;9.38;8.77;;;;;;;-1.00;97.54;101106.78;5006859;28;20046;-64
2022/01/23 08:07:47;;;;;;;8.52;8.02;;;;;;;-0.72;96.59;101106.06;5001845;28;20489;-64
2022/01/23 08:10:14;;;;;;;8.88;8.38;;;;;;;-0.97;97.49;101112.66;5006566;28;20036;-64
2022/01/23 08:12:41;;;;;;;8.70;8.20;;;;;;;-1.02;98.58;101117.28;5005792;28;20405;-65
2022/01/23 08:15:07;;;;;;;9.50;8.90;;;;;;;-1.26;99.82;101122.06;4995624;28;20096;-63
2022/01/23 08:17:33;;;;;;;7.65;7.28;;;;;;;-1.30;99.86;101125.78;5010784;28;20040;-65
2022/01/23 08:20:03;;;;;;;8.63;8.13;;;;;;;-1.33;99.80;101120.72;5010484;28;20030;-64
2022/01/23 08:22:30;;;;;;;8.75;8.25;;;;;;;-1.38;99.67;101127.97;5001327;28;20034;-65
2022/01/23 08:24:57;;;;;;;9.60;9.00;;;;;;;-1.71;100.00;101134.03;5009478;28;20040;-64
2022/01/23 08:27:26;;;;;;;8.45;8.00;;;;;;;-1.60;100.00;101143.06;5011417;28;20065;-64
2022/01/23 08:29:54;;;;;;;8.18;7.78;;;;;;;-1.42;98.77;101142.91;5010309;28;20080;-65
2022/01/23 08:32:20;;;;;;;8.60;8.10;;;;;;;-1.60;99.05;101150.88;5010648;28;20032;-64
2022/01/23 08:34:46;;;;;;;8.90;8.40;;;;;;;-1.75;99.34;101152.50;5008254;28;20034;-64
2022/01/23 08:37:12;;;;;;;8.55;8.13;;;;;;;-1.61;99.19;101157.84;5007263;28;20117;-64
2022/01/23 08:39:38;;;;;;;8.25;7.85;;;;;;;-1.44;98.24;101149.94;5013091;28;20565;-64
2022/01/23 08:42:07;;;;;;;8.10;7.70;;;;;;;-1.52;98.68;101161.69;5013194;28;20041;-64
2022/01/23 08:44:33;;;;;;;8.60;8.13;;;;;;;-1.57;99.32;101163.69;5011825;28;20041;-65
2022/01/23 08:46:59;;;;;;;8.30;7.90;;;;;;;-1.53;99.58;101167.84;5007251;28;20029;-65
2022/01/23 08:49:27;;;;;;;8.30;7.90;;;;;;;-1.43;99.46;101167.25;5007741;28;20022;-64
2022/01/23 08:51:55;;;;;;;8.35;7.95;;;;;;;-1.45;100.00;101176.06;5010270;28;20030;-64
2022/01/23 08:54:21;;;;;;;7.80;7.40;;;;;;;-1.18;99.02;101163.31;5012314;28;20026;-64
2022/01/23 08:56:47;;;;;;;7.70;7.30;;;;;;;-1.11;98.46;101162.03;5010354;28;20396;-64
2022/01/23 08:59:12;;;;;;;9.38;8.77;;;;;;;-1.07;98.53;101167.94;5011435;28;20033;-64
2022/01/23 09:01:38;;;;;;;8.23;7.82;;;;;;;-1.11;98.51;101152.47;5005883;28;20456;-65
2022/01/23 09:04:08;;;;;;;8.93;8.43;;;;;;;-0.77;98.13;101165.38;5007714;28;20543;-64
2022/01/23 09:06:33;;;;;;;7.97;7.57;;;;;;;-0.97;98.62;101169.94;5009911;28;20137;-64
2022/01/23 09:09:00;;;;;;;8.05;7.65;;;;;;;-1.05;98.55;101156.50;5005126;28;20121;-64
2022/01/23 09:11:38;;;;;;;8.70;8.20;;;;;;;-0.87;98.14;101167.69;5004553;28;20507;-64
2022/01/23 09:14:06;;;;;;;8.30;7.90;;;;;;;-0.92;97.38;101172.28;5010245;28;20128;-64
2022/01/23 09:16:40;;;;;;;8.77;8.27;;;;;;;-1.22;97.29;101169.63;5008019;28;20040;-64
2022/01/23 09:19:08;;;;;;;8.80;8.30;;;;;;;-1.03;97.16;101159.00;5008932;28;20408;-64
2022/01/23 09:21:34;;;;;;;9.07;8.55;;;;;;;-1.22;97.21;101154.00;5008182;28;20112;-62
2022/01/23 09:23:59;;;;;;;8.90;8.40;;;;;;;-1.03;96.61;101151.19;5007438;28;20403;-64
2022/01/23 09:26:28;;;;;;;8.60;8.10;;;;;;;-0.77;96.03;101162.78;5015581;28;20041;-64
2022/01/23 09:28:57;;;;;;;8.20;7.80;;;;;;;-0.47;95.52;101158.44;5005502;28;20034;-63
2022/01/23 09:31:34;;;;;;;8.52;8.02;;;;;;;-0.26;94.96;101156.34;5005000;28;20061;-64
2022/01/23 09:34:00;;;;;;;8.48;7.97;;;;;;;0.39;92.25;101164.59;5009366;28;20029;-65
2022/01/23 09:36:25;;;;;;;8.40;7.90;;;;;;;0.36;90.98;101158.72;5008522;28;20025;-64
2022/01/23 09:38:51;;;;;;;7.80;7.40;;;;;;;0.30;90.72;101159.97;5009226;28;20044;-64
2022/01/23 09:41:20;;;;;;;7.50;7.13;;;;;;;0.86;87.93;101160.81;5009572;28;20402;-64
2022/01/23 09:43:47;;;;;;;7.82;7.43;;;;;;;1.37;85.76;101163.63;5015203;28;20025;-64
2022/01/23 09:46:14;;;;;;;8.23;7.78;;;;;;;0.95;85.61;101149.78;5028400;28;20116;-64
2022/01/23 09:48:42;;;;;;;7.60;7.20;;;;;;;0.72;87.10;101153.84;5005607;28;20022;-65
2022/01/23 09:51:08;;;;;;;7.90;7.50;;;;;;;0.44;87.65;101143.44;5008597;28;20080;-65
2022/01/23 09:53:40;;;;;;;8.80;8.30;;;;;;;0.25;87.93;101156.78;5005843;28;20160;-64
2022/01/23 09:56:09;;;;;;;7.93;7.53;;;;;;;-0.13;90.34;101161.69;5011764;28;20079;-64
2022/01/23 09:58:40;;;;;;;9.48;8.88;;;;;;;-0.30;91.15;101171.31;5007321;28;20113;-63
2022/01/23 10:01:06;;;;;;;7.78;7.38;;;;;;;-0.43;91.46;101149.53;5028739;28;20153;-64
2022/01/23 10:03:31;;;;;;;9.15;8.65;;;;;;;-0.58;92.73;101158.22;5015034;28;20045;-63
2022/01/23 10:05:57;;;;;;;9.75;9.15;;;;;;;-0.73;91.55;101161.69;5007735;28;20038;-65
2022/01/23 10:08:27;;;;;;;8.20;7.80;;;;;;;-0.85;92.67;101163.22;5005565;28;20030;-65
2022/01/23 10:10:54;;;;;;;8.95;8.45;;;;;;;-0.50;92.33;101165.59;5011288;28;20026;-64
2022/01/23 10:13:25;;;;;;;8.20;7.75;;;;;;;-0.17;92.83;101170.59;5009348;28;20037;-65
2022/01/23 10:15:51;;;;;;;8.55;8.05;;;;;;;0.27;96.43;101168.78;5009214;28;20148;-64
2022/01/23 10:18:18;;;;;;;8.57;8.07;;;;;;;-0.57;92.39;101163.34;5009326;28;20030;-63
2022/01/23 10:20:46;;;;;;;7.70;7.30;;;;;;;-0.28;92.75;101172.09;5013270;28;20029;-64
2022/01/23 10:23:12;;;;;;;7.88;7.47;;;;;;;-0.77;92.77;101157.56;5009191;28;20113;-64
2022/01/23 10:25:41;;;;;;;8.20;7.80;;;;;;;-0.42;94.51;101166.84;5015220;28;20049;-64
2022/01/23 10:28:13;;;;;;;8.68;8.18;;;;;;;-0.26;93.95;101176.38;5025608;28;20408;-64
2022/01/23 10:30:45;;;;;;;8.38;7.97;;;;;;;-0.33;93.61;101174.09;5012069;28;20121;-64
2022/01/23 10:33:14;;;;;;;8.05;7.65;;;;;;;-0.29;93.26;101174.78;5010638;28;20029;-65
2022/01/23 10:36:07;;;;;;;7.90;7.50;;;;;;;-0.28;92.90;101169.47;5006053;28;20026;-63
2022/01/23 10:38:49;;;;;;;8.50;8.00;;;;;;;-0.22;95.74;101164.81;5010487;28;20033;-63
2022/01/23 10:47:28;;;;;;;8.10;7.70;;;;;;;0.21;94.82;101176.16;5012350;28;20103;-64
2022/01/23 10:50:04;;;;;;;8.40;7.90;;;;;;;0.13;93.68;101178.38;5013875;28;20033;-66
2022/01/23 10:52:44;;;;;;;8.57;8.07;;;;;;;0.11;93.83;101177.66;5013927;28;20038;-67
2022/01/23 10:55:33;;;;;;;8.32;7.85;;;;;;;0.40;94.37;101173.28;5008024;28;20030;-63
2022/01/23 10:58:02;;;;;;;7.93;7.53;;;;;;;0.21;94.06;101179.59;5014195;28;20108;-63
2022/01/23 11:00:35;;;;;;;7.53;7.13;;;;;;;0.16;95.93;101184.28;5009272;28;20072;-63
2022/01/23 11:03:14;;;;;;;8.10;7.65;;;;;;;0.09;96.04;101185.56;5004591;28;20027;-64
2022/01/23 11:05:40;;;;;;;7.82;7.43;;;;;;;0.25;95.77;101186.31;5012870;28;20041;-64
2022/01/23 11:08:26;;;;;;;7.80;7.40;;;;;;;-0.03;96.89;101189.72;5008503;28;20528;-63
2022/01/23 11:11:12;;;;;;;7.75;7.35;;;;;;;0.08;95.88;101196.94;5009272;28;20026;-63
2022/01/23 11:19:22;;;;;;;8.38;7.88;;;;;;;0.37;95.29;101197.81;5010919;28;20512;-63
2022/01/23 11:21:48;;;;;;;7.88;7.47;;;;;;;-0.29;97.00;101200.84;5012224;28;20076;-64
2022/01/23 11:24:17;;;;;;;8.25;7.80;;;;;;;-0.35;97.21;101198.59;5008435;28;20069;-63
2022/01/23 11:26:42;;;;;;;8.00;7.60;;;;;;;0.26;97.62;101197.59;5004386;28;20042;-63
2022/01/23 11:29:11;;;;;;;8.10;7.70;;;;;;;-0.01;97.13;101203.50;5013109;28;20021;-64
2022/01/23 11:31:38;;;;;;;7.82;7.43;;;;;;;0.08;96.93;101201.31;5007755;28;20025;-64
2022/01/23 11:34:06;;;;;;;8.55;8.05;;;;;;;0.04;97.37;101205.84;5012669;28;20034;-64
2022/01/23 11:36:32;;;;;;;8.65;8.15;;;;;;;0.02;97.53;101206.88;5013382;28;20022;-65
2022/01/23 11:39:05;;;;;;;7.65;7.25;;;;;;;-0.05;97.98;101201.19;5009368;28;20041;-63
2022/01/23 11:55:47;;;;;;;7.60;7.20;;;;;;;-0.73;100.00;101230.28;5007983;28;20029;-63
2022/01/23 11:58:34;;;;;;;8.63;8.13;;;;;;;-0.73;100.00;101209.44;4930095;29;20834;-63
2022/01/23 12:01:25;;;;;;;8.40;7.90;;;;;;;-0.65;100.00;101237.66;4991714;28;20132;-64
2022/01/23 12:04:06;;;;;;;8.45;7.97;;;;;;;-0.89;100.00;101243.28;5008769;28;20477;-63
2022/01/23 12:06:35;;;;;;;9.27;8.68;;;;;;;-0.45;100.00;101242.56;5008941;28;20044;-63
2022/01/23 12:09:09;;;;;;;8.38;7.93;;;;;;;-0.52;100.00;101250.81;5013235;28;20101;-63
2022/01/23 12:16:54;;;;;;;8.10;7.68;;;;;;;-1.00;100.00;101261.25;5010801;28;20134;-63
2022/01/23 12:19:22;;;;;;;9.35;8.75;;;;;;;-0.81;100.00;101281.09;5011230;28;20053;-63
2022/01/23 12:21:52;;;;;;;8.38;7.88;;;;;;;-1.03;100.00;101271.81;5003670;28;20030;-64
2022/01/23 12:24:19;;;;;;;8.02;7.63;;;;;;;-1.33;100.00;101273.44;5010744;28;20550;-64
2022/01/23 12:26:46;;;;;;;7.80;7.40;;;;;;;-1.08;100.00;101276.47;5007575;28;20068;-64
2022/01/23 12:29:23;;;;;;;8.57;8.07;;;;;;;-1.02;100.00;101278.75;5012627;28;20521;-65
2022/01/23 12:31:50;;;;;;;8.07;7.68;;;;;;;-1.09;100.00;101277.38;5005617;28;20513;-64
2022/01/23 12:34:25;;;;;;;8.20;7.75;;;;;;;-1.14;100.00;101277.63;5011173;28;20037;-66
2022/01/23 12:36:56;;;;;;;9.45;8.85;;;;;;;-1.20;100.00;101277.09;5012918;28;20056;-65
2022/01/23 12:39:21;;;;;;;7.85;7.45;;;;;;;-0.84;100.00;101269.91;5003524;28;20105;-65
2022/01/23 12:41:47;;;;;;;8.20;7.78;;;;;;;-0.81;100.00;101274.09;5009813;28;20477;-64
2022/01/23 12:44:25;;;;;;;7.97;7.57;;;;;;;-0.88;100.00;101281.44;5011745;28;20040;-65
2022/01/23 12:46:54;;;;;;;8.13;7.72;;;;;;;-0.86;100.00;101282.19;5011013;28;20056;-66
2022/01/23 12:49:45;;;;;;;8.68;8.18;;;;;;;-0.93;100.00;101278.25;5011114;28;20396;-65
2022/01/23 12:52:11;;;;;;;8.00;7.60;;;;;;;-0.87;100.00;101277.91;5011452;28;20025;-65
2022/01/23 12:54:53;;;;;;;7.72;7.32;;;;;;;-0.75;100.00;101293.78;5013231;28;20493;-65
2022/01/23 12:57:24;;;;;;;8.02;7.63;;;;;;;-0.65;100.00;101293.22;5004457;28;20064;-64
2022/01/23 12:59:55;;;;;;;8.40;7.90;;;;;;;-0.85;100.00;101289.06;5010434;28;20033;-64
2022/01/23 13:02:23;;;;;;;8.38;7.88;;;;;;;-1.21;100.00;101296.25;4993193;28;23063;-64
2022/01/23 13:04:51;;;;;;;8.00;7.60;;;;;;;-1.41;100.00;101303.31;5010416;28;20113;-64
2022/01/23 13:07:48;;;;;;;9.68;9.07;;;;;;;-1.12;100.00;101294.00;5008987;28;20605;-66
2022/01/23 13:12:54;;;;;;;8.60;8.10;;;;;;;-1.28;100.00;101297.47;5011084;28;20092;-66
2022/01/23 13:32:07;;;;;;;7.63;7.22;;;;;;;-1.09;100.00;101347.69;5010928;28;20040;-67
2022/01/23 13:34:39;;;;;;;8.18;7.78;;;;;;;-1.21;100.00;101356.97;5001873;28;20109;-67
2022/01/23 13:37:10;;;;;;;7.97;7.57;;;;;;;-1.17;100.00;101357.66;5002184;28;20034;-67
2022/01/23 13:39:44;;;;;;;7.80;7.40;;;;;;;-1.28;100.00;101358.19;5005700;28;20065;-67
2022/01/23 13:59:27;;;;;;;8.63;8.13;;;;;;;-1.58;100.00;101364.94;5010469;28;20532;-67
2022/01/23 14:04:22;;;;;;;7.75;7.35;;;;;;;-1.68;100.00;101383.63;5013187;28;20104;-67
2022/01/23 14:06:48;;;;;;;8.15;7.75;;;;;;;-1.79;100.00;101391.09;5010996;28;20029;-67
2022/01/23 14:09:16;;;;;;;9.65;9.05;;;;;;;-2.03;100.00;101397.47;5010761;28;20033;-70
2022/01/23 14:11:43;;;;;;;8.70;8.20;;;;;;;-2.00;100.00;101398.16;5016005;28;20035;-65
2022/01/23 14:14:20;;;;;;;8.95;8.40;;;;;;;-2.05;100.00;101410.56;5015348;28;20052;-64
2022/01/23 14:16:49;;;;;;;8.25;7.85;;;;;;;-2.06;100.00;101408.00;5008303;28;20038;-64
2022/01/23 14:19:34;;;;;;;8.88;8.38;;;;;;;-2.05;100.00;101420.13;5006589;28;20465;-63
2022/01/23 14:22:01;;;;;;;7.85;7.45;;;;;;;-2.03;100.00;101424.31;5011912;28;20593;-65
2022/01/23 14:24:28;;;;;;;8.40;8.00;;;;;;;-2.45;100.00;101431.47;5010941;28;20096;-64
2022/01/23 14:27:00;;;;;;;8.13;7.72;;;;;;;-2.81;100.00;101437.41;5011121;28;20049;-64
2022/01/23 14:29:27;;;;;;;8.63;8.23;;;;;;;-2.71;100.00;101441.28;5014392;28;20076;-68
2022/01/23 14:32:09;;;;;;;9.23;8.73;;;;;;;-2.68;99.67;101438.56;5005702;28;20046;-63
2022/01/23 14:34:35;;;;;;;8.77;8.27;;;;;;;-2.97;98.58;101445.00;5007137;28;20025;-63
2022/01/23 14:37:05;;;;;;;8.50;8.10;;;;;;;-2.84;98.98;101456.56;5013857;28;20433;-65
2022/01/23 14:39:31;;;;;;;9.10;8.60;;;;;;;-2.96;98.60;101461.41;5005639;28;20034;-65
2022/01/23 14:42:12;;;;;;;8.95;8.45;;;;;;;-3.00;98.85;101454.69;4998225;28;20041;-65
2022/01/23 14:44:38;;;;;;;9.43;8.85;;;;;;;-2.99;98.95;101474.53;5008002;28;20029;-66
2022/01/23 14:47:04;;;;;;;9.20;8.70;;;;;;;-3.08;98.73;101481.81;4997107;28;20501;-65
2022/01/23 14:49:31;;;;;;;9.27;8.77;;;;;;;-3.12;97.33;101477.66;5004726;28;20441;-65
2022/01/23 14:52:00;;;;;;;8.63;8.20;;;;;;;-3.25;97.11;101486.84;4995411;28;20097;-64
2022/01/23 14:54:30;;;;;;;8.88;8.40;;;;;;;-3.29;97.52;101495.66;5003518;28;20022;-64
2022/01/23 14:56:59;;;;;;;9.10;8.60;;;;;;;-3.38;97.88;101478.72;5013620;28;20030;-65
2022/01/23 14:59:24;;;;;;;9.25;8.75;;;;;;;-3.28;98.98;101504.28;5006505;28;20030;-64
2022/01/23 15:01:52;;;;;;;9.18;8.68;;;;;;;-3.35;98.13;101503.69;5001566;28;20393;-64
2022/01/23 15:04:20;;;;;;;9.40;8.85;;;;;;;-3.38;98.92;101507.28;5004409;28;20137;-65
2022/01/23 15:06:48;;;;;;;9.50;9.00;;;;;;;-3.54;99.78;101520.88;5008377;28;20049;-64
2022/01/23 15:09:16;;;;;;;9.45;8.85;;;;;;;-3.54;100.00;101528.66;5006896;28;20029;-66
2022/01/23 15:11:41;;;;;;;8.90;8.40;;;;;;;-3.66;99.84;101540.38;5007456;28;20065;-64